Time;durP1;ratioP1;P1;durP2;ratioP2;P2;SDS_P1;SDS_P2;PMS_P1;PMS_P2;Temp;Humidity;BMP_temperature;BMP_pressure;BME280_temperature;BME280_humidity;BME280_pressure;Samples;Min_cycle;Max_cycle;Signal;HPM_P1;HPM_P2
2022/03/09 00:01:46;;;;;;;;;;;;;;;;;;5075518;28;19912;-26
2022/03/09 00:04:12;;;;;;;;;;;;;;;;;;5074817;28;19955;-26
2022/03/09 00:06:38;;;;;;;;;;;;;;;;;;5076604;28;20028;-26
2022/03/09 00:09:04;;;;;;;;;;;;;;;;;;5079030;28;19947;-26
2022/03/09 00:11:30;;;;;;;;;;;;;;;;;;5078955;28;19955;-26
2022/03/09 00:13:56;;;;;;;;;;;;;;;;;;5079198;28;19974;-26
2022/03/09 00:16:22;;;;;;;;;;;;;;;;;;5078868;28;19912;-26
2022/03/09 00:18:48;;;;;;;;;;;;;;;;;;5078895;28;19919;-26
2022/03/09 00:21:14;;;;;;;;;;;;;;;;;;5079076;28;20259;-26
2022/03/09 00:23:40;;;;;;;;;;;;;;;;;;5079255;28;19909;-26
2022/03/09 00:26:06;;;;;;;;;;;;;;;;;;5078711;28;19912;-26
2022/03/09 00:28:32;;;;;;;;;;;;;;;;;;5079241;28;20347;-26
2022/03/09 00:30:58;;;;;;;;;;;;;;;;;;5078564;28;19916;-26
2022/03/09 00:33:24;;;;;;;;;;;;;;;;;;5078552;28;19991;-26
2022/03/09 00:35:50;;;;;;;;;;;;;;;;;;5078577;28;19915;-26
2022/03/09 00:38:16;;;;;;;;;;;;;;;;;;5078486;28;19937;-26
2022/03/09 00:40:44;;;;;;;;;;;;;;;;;;5078439;28;19916;-26
2022/03/09 00:43:10;;;;;;;;;;;;;;;;;;5078322;28;19991;-26
2022/03/09 00:45:35;;;;;;;;;;;;;;;;;;5078863;28;19997;-26
2022/03/09 00:48:01;;;;;;;;;;;;;;;;;;5078552;28;20365;-26
2022/03/09 00:50:27;;;;;;;;;;;;;;;;;;5078228;28;19916;-26
2022/03/09 00:52:53;;;;;;;;;;;;;;;;;;5078154;28;19999;-26
2022/03/09 00:55:19;;;;;;;;;;;;;;;;;;5078772;28;20307;-26
2022/03/09 00:57:45;;;;;;;;;;;;;;;;;;5078143;28;19908;-26
2022/03/09 01:00:11;;;;;;;;;;;;;;;;;;5078425;28;19913;-26
2022/03/09 01:02:37;;;;;;;;;;;;;;;;;;5078151;28;19912;-26
2022/03/09 01:05:03;;;;;;;;;;;;;;;;;;5077824;28;19978;-26
2022/03/09 01:07:29;;;;;;;;;;;;;;;;;;5078208;28;19936;-26
2022/03/09 01:09:55;;;;;;;;;;;;;;;;;;5077865;28;19919;-26
2022/03/09 01:12:21;;;;;;;;;;;;;;;;;;5078238;28;19912;-26
2022/03/09 01:14:47;;;;;;;;;;;;;;;;;;5077831;28;20408;-26
2022/03/09 01:17:13;;;;;;;;;;;;;;;;;;5076250;28;19940;-26
2022/03/09 01:19:39;;;;;;;;;;;;;;;;;;5077753;28;20061;-26
2022/03/09 01:22:05;;;;;;;;;;;;;;;;;;5078174;28;19913;-26
2022/03/09 01:24:31;;;;;;;;;;;;;;;;;;5077668;28;20317;-26
2022/03/09 01:26:58;;;;;;;;;;;;;;;;;;5076633;28;20007;-26
2022/03/09 01:29:24;;;;;;;;;;;;;;;;;;5078118;28;19939;-26
2022/03/09 01:31:50;;;;;;;;;;;;;;;;;;5077410;28;19913;-26
2022/03/09 01:34:16;;;;;;;;;;;;;;;;;;5077735;28;19912;-26
2022/03/09 01:36:42;;;;;;;;;;;;;;;;;;5077425;28;20007;-26
2022/03/09 01:39:08;;;;;;;;;;;;;;;;;;5077641;28;19996;-26
2022/03/09 01:41:34;;;;;;;;;;;;;;;;;;5076366;28;20363;-26
2022/03/09 01:44:00;;;;;;;;;;;;;;;;;;5077566;28;19916;-26
2022/03/09 01:46:26;;;;;;;;;;;;;;;;;;5077174;28;19917;-26
2022/03/09 01:48:52;;;;;;;;;;;;;;;;;;5077522;28;19978;-26
2022/03/09 01:51:18;;;;;;;;;;;;;;;;;;5077642;28;19955;-26
2022/03/09 01:53:44;;;;;;;;;;;;;;;;;;5077004;28;19916;-26
2022/03/09 01:56:10;;;;;;;;;;;;;;;;;;5077605;28;19913;-26
2022/03/09 01:58:36;;;;;;;;;;;;;;;;;;5077078;28;20359;-26
2022/03/09 02:01:02;;;;;;;;;;;;;;;;;;5077025;28;19913;-26
2022/03/09 02:03:30;;;;;;;;;;;;;;;;;;5076685;28;19924;-26
2022/03/09 02:05:56;;;;;;;;;;;;;;;;;;5077432;28;19916;-26
2022/03/09 02:11:06;;;;;;;;;;;;;;;;;;5076738;28;20262;-26
2022/03/09 02:13:32;;;;;;;;;;;;;;;;;;5076948;28;19909;-26
2022/03/09 02:15:58;;;;;;;;;;;;;;;;;;5076632;28;20237;-26
2022/03/09 02:18:24;;;;;;;;;;;;;;;;;;5076652;28;19966;-26
2022/03/09 02:20:50;;;;;;;;;;;;;;;;;;5077333;28;19912;-26
2022/03/09 02:23:16;;;;;;;;;;;;;;;;;;5076711;28;19916;-26
2022/03/09 02:25:42;;;;;;;;;;;;;;;;;;5076489;28;19939;-26
2022/03/09 02:28:08;;;;;;;;;;;;;;;;;;5076842;28;19919;-26
2022/03/09 02:30:34;;;;;;;;;;;;;;;;;;5075573;28;20311;-26
2022/03/09 02:33:00;;;;;;;;;;;;;;;;;;5076218;28;19919;-26
2022/03/09 02:35:26;;;;;;;;;;;;;;;;;;5076820;28;19908;-26
2022/03/09 02:37:52;;;;;;;;;;;;;;;;;;5076211;28;20005;-26
2022/03/09 02:40:18;;;;;;;;;;;;;;;;;;5076198;28;19909;-26
2022/03/09 02:42:44;;;;;;;;;;;;;;;;;;5076293;28;19926;-26
2022/03/09 02:45:11;;;;;;;;;;;;;;;;;;5076087;28;20266;-26
2022/03/09 02:47:37;;;;;;;;;;;;;;;;;;5076268;28;19912;-26
2022/03/09 02:50:03;;;;;;;;;;;;;;;;;;5076627;28;19912;-26
2022/03/09 02:52:29;;;;;;;;;;;;;;;;;;5075853;28;19917;-26
2022/03/09 02:54:55;;;;;;;;;;;;;;;;;;5076178;28;19950;-26
2022/03/09 02:57:20;;;;;;;;;;;;;;;;;;5076121;28;19951;-26
2022/03/09 02:59:49;;;;;;;;;;;;;;;;;;5075880;28;19918;-26
2022/03/09 03:02:15;;;;;;;;;;;;;;;;;;5075603;28;19912;-26
2022/03/09 03:04:41;;;;;;;;;;;;;;;;;;5075566;28;19977;-26
2022/03/09 03:07:07;;;;;;;;;;;;;;;;;;5076221;28;19958;-26
2022/03/09 03:09:33;;;;;;;;;;;;;;;;;;5075583;28;20081;-26
2022/03/09 03:11:59;;;;;;;;;;;;;;;;;;5075531;28;20057;-26
2022/03/09 03:14:25;;;;;;;;;;;;;;;;;;5076076;28;19939;-27
2022/03/09 03:16:51;;;;;;;;;;;;;;;;;;5075574;28;19908;-27
2022/03/09 03:19:17;;;;;;;;;;;;;;;;;;5075799;28;20274;-27
2022/03/09 03:21:43;;;;;;;;;;;;;;;;;;5075764;28;20007;-27
2022/03/09 03:24:09;;;;;;;;;;;;;;;;;;5075632;28;20369;-27
2022/03/09 03:26:35;;;;;;;;;;;;;;;;;;5075655;28;19928;-27
2022/03/09 03:29:01;;;;;;;;;;;;;;;;;;5075579;28;19931;-27
2022/03/09 03:31:29;;;;;;;;;;;;;;;;;;5074380;28;20379;-27
2022/03/09 03:33:55;;;;;;;;;;;;;;;;;;5076043;28;19965;-27
2022/03/09 03:36:21;;;;;;;;;;;;;;;;;;5075507;28;19912;-27
2022/03/09 03:38:47;;;;;;;;;;;;;;;;;;5075290;28;19908;-27
2022/03/09 03:41:13;;;;;;;;;;;;;;;;;;5075244;28;19944;-27
2022/03/09 03:43:39;;;;;;;;;;;;;;;;;;5075725;28;20010;-27
2022/03/09 03:46:05;;;;;;;;;;;;;;;;;;5075411;28;19924;-27
2022/03/09 03:48:31;;;;;;;;;;;;;;;;;;5075428;28;20375;-27
2022/03/09 03:50:57;;;;;;;;;;;;;;;;;;5075036;28;19917;-27
2022/03/09 03:53:23;;;;;;;;;;;;;;;;;;5074991;28;19994;-27
2022/03/09 03:55:49;;;;;;;;;;;;;;;;;;5075606;28;19912;-26
2022/03/09 03:58:15;;;;;;;;;;;;;;;;;;5075289;28;20282;-27
2022/03/09 04:00:41;;;;;;;;;;;;;;;;;;5075218;28;19916;-27
2022/03/09 04:03:07;;;;;;;;;;;;;;;;;;5074681;28;19908;-26
2022/03/09 04:05:33;;;;;;;;;;;;;;;;;;5075248;28;19913;-27
2022/03/09 04:07:59;;;;;;;;;;;;;;;;;;5074960;28;19908;-27
2022/03/09 04:10:25;;;;;;;;;;;;;;;;;;5075087;28;20367;-27
2022/03/09 04:12:51;;;;;;;;;;;;;;;;;;5074853;28;19908;-27
2022/03/09 04:15:17;;;;;;;;;;;;;;;;;;5074864;28;19912;-26
2022/03/09 04:17:43;;;;;;;;;;;;;;;;;;5073930;28;20208;-26
2022/03/09 04:20:09;;;;;;;;;;;;;;;;;;5074859;28;19969;-27
2022/03/09 04:22:35;;;;;;;;;;;;;;;;;;5074719;28;19926;-27
2022/03/09 04:25:01;;;;;;;;;;;;;;;;;;5075583;28;20358;-26
2022/03/09 04:27:27;;;;;;;;;;;;;;;;;;5074695;28;19913;-27
2022/03/09 04:29:53;;;;;;;;;;;;;;;;;;5075184;28;19924;-27
2022/03/09 04:32:19;;;;;;;;;;;;;;;;;;5074625;28;20241;-27
2022/03/09 04:34:45;;;;;;;;;;;;;;;;;;5075213;28;19924;-27
2022/03/09 04:37:10;;;;;;;;;;;;;;;;;;5074667;28;20352;-27
2022/03/09 04:39:36;;;;;;;;;;;;;;;;;;5074852;28;19912;-27
2022/03/09 04:42:02;;;;;;;;;;;;;;;;;;5074429;28;19939;-27
2022/03/09 04:44:29;;;;;;;;;;;;;;;;;;5074435;28;19923;-27
2022/03/09 04:46:55;;;;;;;;;;;;;;;;;;5074440;28;19924;-27
2022/03/09 04:49:21;;;;;;;;;;;;;;;;;;5074413;28;19913;-27
2022/03/09 04:51:47;;;;;;;;;;;;;;;;;;5074420;28;20374;-27
2022/03/09 04:54:13;;;;;;;;;;;;;;;;;;5078432;28;19982;-27
2022/03/09 04:56:39;;;;;;;;;;;;;;;;;;5078053;28;19920;-27
2022/03/09 04:59:05;;;;;;;;;;;;;;;;;;5077022;28;19912;-27
2022/03/09 05:01:31;;;;;;;;;;;;;;;;;;5078319;28;19994;-27
2022/03/09 05:03:57;;;;;;;;;;;;;;;;;;5077941;28;19955;-27
2022/03/09 05:06:23;;;;;;;;;;;;;;;;;;5077941;28;20305;-27
2022/03/09 05:08:49;;;;;;;;;;;;;;;;;;5077982;28;19908;-27
2022/03/09 05:11:15;;;;;;;;;;;;;;;;;;5077537;28;19920;-27
2022/03/09 05:13:41;;;;;;;;;;;;;;;;;;5077490;28;19920;-27
2022/03/09 05:16:07;;;;;;;;;;;;;;;;;;5078334;28;19912;-27
2022/03/09 05:18:37;;;;;;;;;;;;;;;;;;5077690;28;19999;-27
2022/03/09 05:21:03;;;;;;;;;;;;;;;;;;5077878;28;19965;-27
2022/03/09 05:23:29;;;;;;;;;;;;;;;;;;5077626;28;20361;-27
2022/03/09 05:25:54;;;;;;;;;;;;;;;;;;5077545;28;19973;-27
2022/03/09 05:28:20;;;;;;;;;;;;;;;;;;5077378;28;19916;-27
2022/03/09 05:30:47;;;;;;;;;;;;;;;;;;5077568;28;20377;-27
2022/03/09 05:33:13;;;;;;;;;;;;;;;;;;5077045;28;19958;-27
2022/03/09 05:35:41;;;;;;;;;;;;;;;;;;5077781;28;19916;-27
2022/03/09 05:38:07;;;;;;;;;;;;;;;;;;5077312;28;20004;-27
2022/03/09 05:40:33;;;;;;;;;;;;;;;;;;5077286;28;19913;-27
2022/03/09 05:42:59;;;;;;;;;;;;;;;;;;5077506;28;19912;-27
2022/03/09 05:45:25;;;;;;;;;;;;;;;;;;5077181;28;20355;-27
2022/03/09 05:47:51;;;;;;;;;;;;;;;;;;5077400;28;19909;-27
2022/03/09 05:50:18;;;;;;;;;;;;;;;;;;5077004;28;19917;-27
2022/03/09 05:52:44;;;;;;;;;;;;;;;;;;5076892;28;20384;-27
2022/03/09 05:55:10;;;;;;;;;;;;;;;;;;5077327;28;19912;-27
2022/03/09 05:57:36;;;;;;;;;;;;;;;;;;5076968;28;19967;-27
2022/03/09 06:00:02;;;;;;;;;;;;;;;;;;5076774;28;20007;-27
2022/03/09 06:02:28;;;;;;;;;;;;;;;;;;5076570;28;19956;-27
2022/03/09 06:04:54;;;;;;;;;;;;;;;;;;5076632;28;20370;-27
2022/03/09 06:07:20;;;;;;;;;;;;;;;;;;5077208;28;19912;-27
2022/03/09 06:09:46;;;;;;;;;;;;;;;;;;5076768;28;19912;-27
2022/03/09 06:12:12;;;;;;;;;;;;;;;;;;5076503;28;19922;-27
2022/03/09 06:14:38;;;;;;;;;;;;;;;;;;5076646;28;19908;-27
2022/03/09 06:17:04;;;;;;;;;;;;;;;;;;5077268;28;19999;-27
2022/03/09 06:19:30;;;;;;;;;;;;;;;;;;5076397;28;19916;-27
2022/03/09 06:21:56;;;;;;;;;;;;;;;;;;5076261;28;19909;-27
2022/03/09 06:24:22;;;;;;;;;;;;;;;;;;5076876;28;20319;-27
2022/03/09 06:26:48;;;;;;;;;;;;;;;;;;5076329;28;19952;-27
2022/03/09 06:29:14;;;;;;;;;;;;;;;;;;5076255;28;20027;-27
2022/03/09 06:31:42;;;;;;;;;;;;;;;;;;5076556;28;20007;-27
2022/03/09 06:34:08;;;;;;;;;;;;;;;;;;5076160;28;19912;-27
2022/03/09 06:36:34;;;;;;;;;;;;;;;;;;5076467;28;19916;-27
2022/03/09 06:39:00;;;;;;;;;;;;;;;;;;5076245;28;20339;-27
2022/03/09 06:41:26;;;;;;;;;;;;;;;;;;5076346;28;19912;-27
2022/03/09 06:43:52;;;;;;;;;;;;;;;;;;5076215;28;19912;-27
2022/03/09 06:46:18;;;;;;;;;;;;;;;;;;5075982;28;19920;-27
2022/03/09 06:48:44;;;;;;;;;;;;;;;;;;5075831;28;19916;-27
2022/03/09 06:51:10;;;;;;;;;;;;;;;;;;5075970;28;19927;-27
2022/03/09 06:53:36;;;;;;;;;;;;;;;;;;5075620;28;20377;-27
2022/03/09 06:56:03;;;;;;;;;;;;;;;;;;5075849;28;19931;-27
2022/03/09 06:58:29;;;;;;;;;;;;;;;;;;5075653;28;19912;-27
2022/03/09 07:00:57;;;;;;;;;;;;;;;;;;5075368;28;19967;-27
2022/03/09 07:03:23;;;;;;;;;;;;;;;;;;5075403;28;19924;-26
2022/03/09 07:05:49;;;;;;;;;;;;;;;;;;5075617;28;19912;-27
2022/03/09 07:08:15;;;;;;;;;;;;;;;;;;5075354;28;19920;-27
2022/03/09 07:10:41;;;;;;;;;;;;;;;;;;5075816;28;20263;-27
2022/03/09 07:13:07;;;;;;;;;;;;;;;;;;5075236;28;19912;-27
2022/03/09 07:15:33;;;;;;;;;;;;;;;;;;5074971;28;20383;-26
2022/03/09 07:17:59;;;;;;;;;;;;;;;;;;5075276;28;20355;-26
2022/03/09 07:20:25;;;;;;;;;;;;;;;;;;5075242;28;19912;-26
2022/03/09 07:22:51;;;;;;;;;;;;;;;;;;5075755;28;19909;-26
2022/03/09 07:25:18;;;;;;;;;;;;;;;;;;5075516;28;20003;-26
2022/03/09 07:27:44;;;;;;;;;;;;;;;;;;5075125;28;19920;-26
2022/03/09 07:30:11;;;;;;;;;;;;;;;;;;5075198;28;19916;-26
2022/03/09 07:32:37;;;;;;;;;;;;;;;;;;5075169;28;19962;-26
2022/03/09 07:35:03;;;;;;;;;;;;;;;;;;5075177;28;19947;-26
2022/03/09 07:37:29;;;;;;;;;;;;;;;;;;5075664;28;19940;-26
2022/03/09 07:39:55;;;;;;;;;;;;;;;;;;5075255;28;19948;-26
2022/03/09 07:42:21;;;;;;;;;;;;;;;;;;5074883;28;19908;-27
2022/03/09 07:44:47;;;;;;;;;;;;;;;;;;5074931;28;19919;-26
2022/03/09 07:47:13;;;;;;;;;;;;;;;;;;5074905;28;19908;-27
2022/03/09 07:49:39;;;;;;;;;;;;;;;;;;5074908;28;19969;-27
2022/03/09 07:52:05;;;;;;;;;;;;;;;;;;5074853;28;19913;-27
2022/03/09 07:54:31;;;;;;;;;;;;;;;;;;5074883;28;19920;-27
2022/03/09 07:56:57;;;;;;;;;;;;;;;;;;5074887;28;19912;-27
2022/03/09 07:59:25;;;;;;;;;;;;;;;;;;5074849;28;19931;-27
2022/03/09 08:01:52;;;;;;;;;;;;;;;;;;5075064;28;19912;-27
2022/03/09 08:04:19;;;;;;;;;;;;;;;;;;5074720;28;19920;-27
2022/03/09 08:06:45;;;;;;;;;;;;;;;;;;5075088;28;19913;-27
2022/03/09 08:09:11;;;;;;;;;;;;;;;;;;5075017;28;20255;-27
2022/03/09 08:11:37;;;;;;;;;;;;;;;;;;5074920;28;19943;-27
2022/03/09 08:14:03;;;;;;;;;;;;;;;;;;5074600;28;19920;-27
2022/03/09 08:16:29;;;;;;;;;;;;;;;;;;5075029;28;19912;-27
2022/03/09 08:18:55;;;;;;;;;;;;;;;;;;5074576;28;19930;-27
2022/03/09 08:21:21;;;;;;;;;;;;;;;;;;5074475;28;20407;-27
2022/03/09 08:23:47;;;;;;;;;;;;;;;;;;5075004;28;19909;-27
2022/03/09 08:26:14;;;;;;;;;;;;;;;;;;5074629;28;20228;-27
2022/03/09 08:28:40;;;;;;;;;;;;;;;;;;5078035;28;19913;-26
2022/03/09 08:31:06;;;;;;;;;;;;;;;;;;5078310;28;20331;-26
2022/03/09 08:33:32;;;;;;;;;;;;;;;;;;5078233;28;20086;-26
2022/03/09 08:35:58;;;;;;;;;;;;;;;;;;5078395;28;20013;-26
2022/03/09 08:38:24;;;;;;;;;;;;;;;;;;5078513;28;19965;-26
2022/03/09 08:40:50;;;;;;;;;;;;;;;;;;5078557;28;20007;-26
2022/03/09 08:43:17;;;;;;;;;;;;;;;;;;5078036;28;19908;-26
2022/03/09 08:45:44;;;;;;;;;;;;;;;;;;5077980;28;19912;-26
2022/03/09 08:48:10;;;;;;;;;;;;;;;;;;5078986;28;19916;-26
2022/03/09 08:50:36;;;;;;;;;;;;;;;;;;5076735;28;19920;-26
2022/03/09 08:53:02;;;;;;;;;;;;;;;;;;5077805;28;20007;-26
2022/03/09 08:55:28;;;;;;;;;;;;;;;;;;5077827;28;20339;-26
2022/03/09 08:57:55;;;;;;;;;;;;;;;;;;5078243;28;19913;-26
2022/03/09 09:00:21;;;;;;;;;;;;;;;;;;5077746;28;19970;-26
2022/03/09 09:02:47;;;;;;;;;;;;;;;;;;5077724;28;19919;-26
2022/03/09 09:05:13;;;;;;;;;;;;;;;;;;5077610;28;20007;-26
2022/03/09 09:07:39;;;;;;;;;;;;;;;;;;5077704;28;19951;-27
2022/03/09 09:10:05;;;;;;;;;;;;;;;;;;5077343;28;19977;-27
2022/03/09 09:12:31;;;;;;;;;;;;;;;;;;5077403;28;19987;-26
2022/03/09 09:14:57;;;;;;;;;;;;;;;;;;5077519;28;19920;-26
2022/03/09 09:17:23;;;;;;;;;;;;;;;;;;5077327;28;20212;-26
2022/03/09 09:19:50;;;;;;;;;;;;;;;;;;5077989;28;19909;-26
2022/03/09 09:22:16;;;;;;;;;;;;;;;;;;5077388;28;19912;-26
2022/03/09 09:24:43;;;;;;;;;;;;;;;;;;5077925;28;20007;-26
2022/03/09 09:27:09;;;;;;;;;;;;;;;;;;5077253;28;19923;-26
2022/03/09 09:29:35;;;;;;;;;;;;;;;;;;5077627;28;19920;-26
2022/03/09 09:32:01;;;;;;;;;;;;;;;;;;5077576;28;19920;-26
2022/03/09 09:34:27;;;;;;;;;;;;;;;;;;5078113;28;20346;-26
2022/03/09 09:36:53;;;;;;;;;;;;;;;;;;5077285;28;19927;-26
2022/03/09 09:39:20;;;;;;;;;;;;;;;;;;5076792;28;19909;-27
2022/03/09 09:41:46;;;;;;;;;;;;;;;;;;5077241;28;19913;-27
2022/03/09 09:44:12;;;;;;;;;;;;;;;;;;5077991;28;19916;-27
2022/03/09 09:46:41;;;;;;;;;;;;;;;;;;5077051;28;19913;-27
2022/03/09 09:49:07;;;;;;;;;;;;;;;;;;5076970;28;19999;-27
2022/03/09 09:51:33;;;;;;;;;;;;;;;;;;5077075;28;19958;-27
2022/03/09 09:53:59;;;;;;;;;;;;;;;;;;5076869;28;19909;-27
2022/03/09 09:56:25;;;;;;;;;;;;;;;;;;5077053;28;20243;-27
2022/03/09 09:58:51;;;;;;;;;;;;;;;;;;5076811;28;19908;-26
2022/03/09 10:01:17;;;;;;;;;;;;;;;;;;5076974;28;20352;-26
2022/03/09 10:03:43;;;;;;;;;;;;;;;;;;5076387;28;20023;-27
2022/03/09 10:06:09;;;;;;;;;;;;;;;;;;5076871;28;19965;-27
2022/03/09 10:08:35;;;;;;;;;;;;;;;;;;5076914;28;19923;-27
2022/03/09 10:11:01;;;;;;;;;;;;;;;;;;5076361;28;19963;-27
2022/03/09 10:13:28;;;;;;;;;;;;;;;;;;5076273;28;19920;-27
2022/03/09 10:15:53;;;;;;;;;;;;;;;;;;5076398;28;19935;-27
2022/03/09 10:18:20;;;;;;;;;;;;;;;;;;5076909;28;19912;-27
2022/03/09 10:20:46;;;;;;;;;;;;;;;;;;5076331;28;20018;-27
2022/03/09 10:23:12;;;;;;;;;;;;;;;;;;5076616;28;19923;-27
2022/03/09 10:25:38;;;;;;;;;;;;;;;;;;5076346;28;20010;-27
2022/03/09 10:28:04;;;;;;;;;;;;;;;;;;5075960;28;20023;-27
2022/03/09 10:30:30;;;;;;;;;;;;;;;;;;5075923;28;20292;-27
2022/03/09 10:32:59;;;;;;;;;;;;;;;;;;5075976;28;19912;-27
2022/03/09 10:35:27;;;;;;;;;;;;;;;;;;5075638;28;19952;-27
2022/03/09 10:37:53;;;;;;;;;;;;;;;;;;5075905;28;19965;-27
2022/03/09 10:40:19;;;;;;;;;;;;;;;;;;5076007;28;20327;-27
2022/03/09 10:42:45;;;;;;;;;;;;;;;;;;5075797;28;19927;-27
2022/03/09 10:45:11;;;;;;;;;;;;;;;;;;5075525;28;19909;-27
2022/03/09 10:47:37;;;;;;;;;;;;;;;;;;5075588;28;20369;-27
2022/03/09 10:50:03;;;;;;;;;;;;;;;;;;5074633;28;19975;-28
2022/03/09 10:52:29;;;;;;;;;;;;;;;;;;5075921;28;19912;-27
2022/03/09 10:54:55;;;;;;;;;;;;;;;;;;5075375;28;20309;-27
2022/03/09 10:57:21;;;;;;;;;;;;;;;;;;5075842;28;19912;-27
2022/03/09 10:59:47;;;;;;;;;;;;;;;;;;5075352;28;19966;-27
2022/03/09 11:02:13;;;;;;;;;;;;;;;;;;5075358;28;19912;-27
2022/03/09 11:04:40;;;;;;;;;;;;;;;;;;5075234;28;19932;-27
2022/03/09 11:07:06;;;;;;;;;;;;;;;;;;5075701;28;19973;-27
2022/03/09 11:09:32;;;;;;;;;;;;;;;;;;5075306;28;19916;-27
2022/03/09 11:11:58;;;;;;;;;;;;;;;;;;5075411;28;20520;-27
2022/03/09 11:14:29;;;;;;;;;;;;;;;;;;5076381;28;20290;-27
2022/03/09 11:16:57;;;;;;;;;;;;;;;;;;5075204;28;19916;-27
2022/03/09 11:19:23;;;;;;;;;;;;;;;;;;5075174;28;19927;-27
2022/03/09 11:21:49;;;;;;;;;;;;;;;;;;5075628;28;19921;-27
2022/03/09 11:24:15;;;;;;;;;;;;;;;;;;5075696;28;19912;-27
2022/03/09 11:26:42;;;;;;;;;;;;;;;;;;5075058;28;19912;-27
2022/03/09 11:29:09;;;;;;;;;;;;;;;;;;5075038;28;19913;-27
2022/03/09 11:31:35;;;;;;;;;;;;;;;;;;5074799;28;19916;-27
2022/03/09 11:34:01;;;;;;;;;;;;;;;;;;5075197;28;20324;-27
2022/03/09 11:36:29;;;;;;;;;;;;;;;;;;5075143;28;20395;-27
2022/03/09 11:38:55;;;;;;;;;;;;;;;;;;5075338;28;20018;-27
2022/03/09 11:41:21;;;;;;;;;;;;;;;;;;5074960;28;19913;-27
2022/03/09 11:43:47;;;;;;;;;;;;;;;;;;5074843;28;19927;-27
2022/03/09 11:46:13;;;;;;;;;;;;;;;;;;5075195;28;19912;-27
2022/03/09 11:48:39;;;;;;;;;;;;;;;;;;5075116;28;19937;-27
2022/03/09 11:51:06;;;;;;;;;;;;;;;;;;5074835;28;19920;-27
2022/03/09 11:53:32;;;;;;;;;;;;;;;;;;5074932;28;19912;-27
2022/03/09 11:55:58;;;;;;;;;;;;;;;;;;5074684;28;20003;-27
2022/03/09 11:58:24;;;;;;;;;;;;;;;;;;5074861;28;19927;-26
2022/03/09 12:00:50;;;;;;;;;;;;;;;;;;5075442;28;19923;-27
2022/03/09 12:03:16;;;;;;;;;;;;;;;;;;5074592;28;20317;-26
2022/03/09 12:05:42;;;;;;;;;;;;;;;;;;5074911;28;19909;-26
2022/03/09 12:08:09;;;;;;;;;;;;;;;;;;5074950;28;19917;-26
2022/03/09 12:10:35;;;;;;;;;;;;;;;;;;5074670;28;19967;-26
2022/03/09 12:13:01;;;;;;;;;;;;;;;;;;5074688;28;19923;-26
2022/03/09 12:15:27;;;;;;;;;;;;;;;;;;5075196;28;19920;-26
2022/03/09 12:17:53;;;;;;;;;;;;;;;;;;5074701;28;19909;-26
2022/03/09 12:20:19;;;;;;;;;;;;;;;;;;5074865;28;19920;-26
2022/03/09 12:22:45;;;;;;;;;;;;;;;;;;5074847;28;19917;-26
2022/03/09 12:25:11;;;;;;;;;;;;;;;;;;5074656;28;20343;-26
2022/03/09 12:27:39;;;;;;;;;;;;;;;;;;5074778;28;20057;-26
2022/03/09 12:30:06;;;;;;;;;;;;;;;;;;5074574;28;19920;-26
2022/03/09 12:32:33;;;;;;;;;;;;;;;;;;5074445;28;20237;-26
2022/03/09 12:34:59;;;;;;;;;;;;;;;;;;5074290;28;20007;-26
2022/03/09 12:37:25;;;;;;;;;;;;;;;;;;5074485;28;19936;-26
2022/03/09 12:39:51;;;;;;;;;;;;;;;;;;5074397;28;19912;-26
2022/03/09 12:42:17;;;;;;;;;;;;;;;;;;5075124;28;19909;-26
2022/03/09 12:44:43;;;;;;;;;;;;;;;;;;5075081;28;19912;-26
2022/03/09 12:47:09;;;;;;;;;;;;;;;;;;5074764;28;19965;-26
2022/03/09 12:49:35;;;;;;;;;;;;;;;;;;5074132;28;19995;-26
2022/03/09 12:52:01;;;;;;;;;;;;;;;;;;5074423;28;20361;-26
2022/03/09 12:54:27;;;;;;;;;;;;;;;;;;5074514;28;19908;-26
2022/03/09 12:56:53;;;;;;;;;;;;;;;;;;5074118;28;20231;-26
2022/03/09 12:59:19;;;;;;;;;;;;;;;;;;5074090;28;19908;-26
2022/03/09 13:01:45;;;;;;;;;;;;;;;;;;5074400;28;19921;-26
2022/03/09 13:04:11;;;;;;;;;;;;;;;;;;5073863;28;19920;-26
2022/03/09 13:06:37;;;;;;;;;;;;;;;;;;5074111;28;20329;-26
2022/03/09 13:09:03;;;;;;;;;;;;;;;;;;5074066;28;19908;-26
2022/03/09 13:11:29;;;;;;;;;;;;;;;;;;5073803;28;19920;-26
2022/03/09 13:13:56;;;;;;;;;;;;;;;;;;5075932;28;19908;-26
2022/03/09 13:16:28;;;;;;;;;;;;;;;;;;5077549;28;19919;-26
2022/03/09 13:18:54;;;;;;;;;;;;;;;;;;5078109;28;20401;-27
2022/03/09 13:21:20;;;;;;;;;;;;;;;;;;5077826;28;20016;-27
2022/03/09 13:23:46;;;;;;;;;;;;;;;;;;5077447;28;20323;-27
2022/03/09 13:26:12;;;;;;;;;;;;;;;;;;5077681;28;19913;-27
2022/03/09 13:28:38;;;;;;;;;;;;;;;;;;5077439;28;20358;-27
2022/03/09 13:31:04;;;;;;;;;;;;;;;;;;5077270;28;19920;-27
2022/03/09 13:33:30;;;;;;;;;;;;;;;;;;5077613;28;19909;-26
2022/03/09 13:35:56;;;;;;;;;;;;;;;;;;5077918;28;19916;-26
2022/03/09 13:38:24;;;;;;;;;;;;;;;;;;5077267;28;19914;-26
2022/03/09 13:40:50;;;;;;;;;;;;;;;;;;5077121;28;19912;-26
2022/03/09 13:43:16;;;;;;;;;;;;;;;;;;5077604;28;19923;-26
2022/03/09 13:45:42;;;;;;;;;;;;;;;;;;5077625;28;20263;-26
2022/03/09 13:48:10;;;;;;;;;;;;;;;;;;5076888;28;19916;-26
2022/03/09 13:50:38;;;;;;;;;;;;;;;;;;5076659;28;19912;-26
2022/03/09 13:53:04;;;;;;;;;;;;;;;;;;5076677;28;19920;-27
2022/03/09 13:55:30;;;;;;;;;;;;;;;;;;5076850;28;19957;-27
2022/03/09 13:57:56;;;;;;;;;;;;;;;;;;5076588;28;19913;-26
2022/03/09 14:00:22;;;;;;;;;;;;;;;;;;5077255;28;19913;-27
2022/03/09 14:02:48;;;;;;;;;;;;;;;;;;5076872;28;20290;-27
2022/03/09 14:05:14;;;;;;;;;;;;;;;;;;5075314;28;19924;-27
2022/03/09 14:07:40;;;;;;;;;;;;;;;;;;5076759;28;19912;-26
2022/03/09 14:10:06;;;;;;;;;;;;;;;;;;5076667;28;19919;-26
2022/03/09 14:12:32;;;;;;;;;;;;;;;;;;5076666;28;20228;-26
2022/03/09 14:14:58;;;;;;;;;;;;;;;;;;5077048;28;19915;-26
2022/03/09 14:17:24;;;;;;;;;;;;;;;;;;5076621;28;19962;-27
2022/03/09 14:19:50;;;;;;;;;;;;;;;;;;5076361;28;19912;-27
2022/03/09 14:22:16;;;;;;;;;;;;;;;;;;5076618;28;20019;-27
2022/03/09 14:24:42;;;;;;;;;;;;;;;;;;5075901;28;19913;-27
2022/03/09 14:27:09;;;;;;;;;;;;;;;;;;5076138;28;19916;-26
2022/03/09 14:29:35;;;;;;;;;;;;;;;;;;5077120;28;19917;-26
2022/03/09 14:32:01;;;;;;;;;;;;;;;;;;5076266;28;19978;-26
2022/03/09 14:34:27;;;;;;;;;;;;;;;;;;5076780;28;19919;-27
2022/03/09 14:36:53;;;;;;;;;;;;;;;;;;5076177;28;19912;-26
2022/03/09 14:39:25;;;;;;;;;;;;;;;;;;5076113;28;20003;-27
2022/03/09 14:41:51;;;;;;;;;;;;;;;;;;5076030;28;19958;-27
2022/03/09 14:44:17;;;;;;;;;;;;;;;;;;5076368;28;19919;-27
2022/03/09 14:46:43;;;;;;;;;;;;;;;;;;5076531;28;19951;-27
2022/03/09 14:49:09;;;;;;;;;;;;;;;;;;5075902;28;19999;-27
2022/03/09 14:51:35;;;;;;;;;;;;;;;;;;5075808;28;19920;-27
2022/03/09 14:54:01;;;;;;;;;;;;;;;;;;5075820;28;19908;-27
2022/03/09 14:56:26;;;;;;;;;;;;;;;;;;5075910;28;19924;-27
2022/03/09 14:58:52;;;;;;;;;;;;;;;;;;5076079;28;19919;-27
2022/03/09 15:01:19;;;;;;;;;;;;;;;;;;5075769;28;19913;-27
2022/03/09 15:03:45;;;;;;;;;;;;;;;;;;5075587;28;19970;-27
2022/03/09 15:06:11;;;;;;;;;;;;;;;;;;5075854;28;19913;-27
2022/03/09 15:08:37;;;;;;;;;;;;;;;;;;5075668;28;19915;-27
2022/03/09 15:11:02;;;;;;;;;;;;;;;;;;5075505;28;19920;-27
2022/03/09 15:13:29;;;;;;;;;;;;;;;;;;5075386;28;19909;-27
2022/03/09 15:15:55;;;;;;;;;;;;;;;;;;5075410;28;19912;-27
2022/03/09 15:18:22;;;;;;;;;;;;;;;;;;5075300;28;19908;-27
2022/03/09 15:20:48;;;;;;;;;;;;;;;;;;5075363;28;20294;-27
2022/03/09 15:23:14;;;;;;;;;;;;;;;;;;5075249;28;19913;-27
2022/03/09 15:25:40;;;;;;;;;;;;;;;;;;5075324;28;19913;-27
2022/03/09 15:28:06;;;;;;;;;;;;;;;;;;5075250;28;19909;-27
2022/03/09 15:30:33;;;;;;;;;;;;;;;;;;5075198;28;19916;-27
2022/03/09 15:33:00;;;;;;;;;;;;;;;;;;5075451;28;20269;-27
2022/03/09 15:35:27;;;;;;;;;;;;;;;;;;5075101;28;20294;-27
2022/03/09 15:37:53;;;;;;;;;;;;;;;;;;5075046;28;20289;-27
2022/03/09 15:40:19;;;;;;;;;;;;;;;;;;5075356;28;20250;-27
2022/03/09 15:42:45;;;;;;;;;;;;;;;;;;5075227;28;19908;-27
2022/03/09 15:45:11;;;;;;;;;;;;;;;;;;5075598;28;19909;-27
2022/03/09 15:47:37;;;;;;;;;;;;;;;;;;5075367;28;19913;-27
2022/03/09 15:50:04;;;;;;;;;;;;;;;;;;5074931;28;19990;-27
2022/03/09 15:52:30;;;;;;;;;;;;;;;;;;5075385;28;19920;-27
2022/03/09 15:54:56;;;;;;;;;;;;;;;;;;5075066;28;19977;-27
2022/03/09 15:57:22;;;;;;;;;;;;;;;;;;5074829;28;19966;-27
2022/03/09 15:59:48;;;;;;;;;;;;;;;;;;5074836;28;19913;-27
2022/03/09 16:02:14;;;;;;;;;;;;;;;;;;5074659;28;19913;-27
2022/03/09 16:04:42;;;;;;;;;;;;;;;;;;5074578;28;19974;-26
2022/03/09 16:07:08;;;;;;;;;;;;;;;;;;5075009;28;19939;-27
2022/03/09 16:09:34;;;;;;;;;;;;;;;;;;5074883;28;19935;-27
2022/03/09 16:12:00;;;;;;;;;;;;;;;;;;5074981;28;19912;-27
2022/03/09 16:14:26;;;;;;;;;;;;;;;;;;5075064;28;20283;-27
2022/03/09 16:16:52;;;;;;;;;;;;;;;;;;5074992;28;19913;-27
2022/03/09 16:19:18;;;;;;;;;;;;;;;;;;5074813;28;19908;-27
2022/03/09 16:21:46;;;;;;;;;;;;;;;;;;5074701;28;19927;-27
2022/03/09 16:24:12;;;;;;;;;;;;;;;;;;5074726;28;19908;-27
2022/03/09 16:26:38;;;;;;;;;;;;;;;;;;5074793;28;20263;-27
2022/03/09 16:29:04;;;;;;;;;;;;;;;;;;5074727;28;20374;-27
2022/03/09 16:31:30;;;;;;;;;;;;;;;;;;5075685;28;20232;-27
2022/03/09 16:33:56;;;;;;;;;;;;;;;;;;5074923;28;19919;-27
2022/03/09 16:36:22;;;;;;;;;;;;;;;;;;5074640;28;19986;-27
2022/03/09 16:38:48;;;;;;;;;;;;;;;;;;5073496;28;19955;-27
2022/03/09 16:41:17;;;;;;;;;;;;;;;;;;5074369;28;19936;-26